Time;durP1;ratioP1;P1;durP2;ratioP2;P2;SDS_P1;SDS_P2;PMS_P1;PMS_P2;Temp;Humidity;BMP_temperature;BMP_pressure;BME280_temperature;BME280_humidity;BME280_pressure;Samples;Min_cycle;Max_cycle;Signal;HPM_P1;HPM_P2
2021/11/29 00:01:43;;;;;;;3.25;1.50;;;;;;;18.44;42.98;100069.00;5040418;28;20029;-69
2021/11/29 00:04:08;;;;;;;2.20;1.25;;;;;;;18.44;43.22;100084.81;5037701;28;20747;-70
2021/11/29 00:06:34;;;;;;;4.60;1.65;;;;;;;18.42;43.22;100086.84;5033667;28;20045;-70
2021/11/29 00:08:59;;;;;;;2.25;1.40;;;;;;;18.35;42.99;100078.06;5038201;28;20094;-70
2021/11/29 00:11:26;;;;;;;1.58;1.30;;;;;;;18.37;43.27;100091.88;5031828;28;20128;-70
2021/11/29 00:13:51;;;;;;;3.20;1.60;;;;;;;18.31;43.06;100082.91;5039140;28;20133;-70
2021/11/29 00:16:17;;;;;;;3.20;1.60;;;;;;;18.30;43.15;100080.41;5033922;28;20479;-70
2021/11/29 00:18:42;;;;;;;2.15;1.23;;;;;;;18.27;43.22;100088.72;5035489;28;20025;-70
2021/11/29 00:21:08;;;;;;;1.73;1.08;;;;;;;18.29;43.09;100090.16;5036984;28;20044;-70
2021/11/29 00:23:34;;;;;;;4.05;1.30;;;;;;;18.26;43.33;100087.06;5038926;28;20064;-70
2021/11/29 00:25:59;;;;;;;2.67;1.55;;;;;;;18.19;43.28;100080.94;5038388;28;20410;-70
2021/11/29 00:28:25;;;;;;;1.38;1.20;;;;;;;18.24;43.23;100089.09;5052956;28;20248;-70
2021/11/29 00:30:51;;;;;;;2.70;1.23;;;;;;;18.19;43.39;100089.66;5037246;28;20097;-70
2021/11/29 00:33:16;;;;;;;1.90;1.30;;;;;;;18.18;43.40;100084.56;5038622;28;20037;-70
2021/11/29 00:35:42;;;;;;;2.67;1.27;;;;;;;18.13;43.37;100079.84;5034515;28;20130;-70
2021/11/29 00:38:09;;;;;;;1.55;1.10;;;;;;;18.11;43.52;100090.56;5055292;28;20049;-70
2021/11/29 00:40:36;;;;;;;1.98;1.48;;;;;;;18.05;43.42;100083.41;5039343;28;20032;-70
2021/11/29 00:43:02;;;;;;;1.77;1.27;;;;;;;18.06;43.58;100092.94;5037510;28;20025;-70
2021/11/29 00:45:27;;;;;;;2.97;1.38;;;;;;;18.05;43.50;100093.13;5037348;28;20044;-70
2021/11/29 00:47:53;;;;;;;2.40;1.50;;;;;;;18.00;43.64;100098.97;5031345;28;20037;-70
2021/11/29 00:50:19;;;;;;;1.17;1.02;;;;;;;18.00;43.64;100087.63;5037041;28;20021;-70
2021/11/29 00:52:45;;;;;;;2.35;1.42;;;;;;;17.96;43.81;100092.44;5037744;28;20049;-70
2021/11/29 00:55:12;;;;;;;2.47;1.23;;;;;;;17.95;43.91;100088.16;5035531;28;20063;-69
2021/11/29 00:57:38;;;;;;;1.08;0.88;;;;;;;17.91;43.67;100099.25;5035602;28;20060;-69
2021/11/29 01:00:07;;;;;;;1.92;1.23;;;;;;;17.92;43.71;100098.25;5035268;28;20048;-69
2021/11/29 01:02:33;;;;;;;2.13;1.45;;;;;;;17.95;43.69;100103.94;5051949;28;20162;-69
2021/11/29 01:04:58;;;;;;;1.33;1.00;;;;;;;17.93;43.63;100108.59;5038453;28;20134;-68
2021/11/29 01:07:24;;;;;;;2.30;1.23;;;;;;;17.85;43.75;100113.16;5035838;28;20044;-69
2021/11/29 01:09:49;;;;;;;2.45;1.20;;;;;;;17.86;43.66;100123.50;5030153;28;20391;-69
2021/11/29 01:12:15;;;;;;;1.77;1.20;;;;;;;17.83;43.82;100129.16;5037000;28;20152;-69
2021/11/29 01:14:41;;;;;;;1.80;0.85;;;;;;;17.84;43.77;100141.31;5037890;28;20540;-68
2021/11/29 01:17:07;;;;;;;1.90;1.08;;;;;;;17.79;43.81;100135.78;5039243;28;20049;-69
2021/11/29 01:19:33;;;;;;;1.70;1.05;;;;;;;17.76;43.92;100129.03;5039089;28;20123;-69
2021/11/29 01:21:59;;;;;;;2.33;1.23;;;;;;;17.81;43.77;100128.50;5033058;28;20051;-69
2021/11/29 01:24:24;;;;;;;2.05;1.00;;;;;;;17.75;43.82;100134.50;5040090;28;20727;-69
2021/11/29 01:26:50;;;;;;;2.05;1.13;;;;;;;17.77;43.95;100138.59;5041789;28;20041;-69
2021/11/29 01:29:15;;;;;;;1.85;0.98;;;;;;;17.75;43.84;100137.94;5042868;28;20033;-69
2021/11/29 01:31:41;;;;;;;2.83;1.17;;;;;;;17.75;43.84;100145.84;5035760;28;20521;-69
2021/11/29 01:34:07;;;;;;;1.38;1.10;;;;;;;17.73;43.73;100149.66;5037899;28;20037;-69
2021/11/29 01:36:32;;;;;;;2.05;1.02;;;;;;;17.69;43.96;100154.47;5040594;28;20278;-69
2021/11/29 01:38:58;;;;;;;2.90;1.00;;;;;;;17.71;43.90;100157.75;5043977;28;20503;-69
2021/11/29 01:41:23;;;;;;;2.50;0.70;;;;;;;17.70;43.97;100152.66;5044156;28;21396;-69
2021/11/29 01:43:49;;;;;;;2.30;1.27;;;;;;;17.64;43.72;100151.56;5037609;28;20055;-69
2021/11/29 01:46:16;;;;;;;1.67;0.73;;;;;;;17.65;43.89;100157.63;5040556;28;20049;-69
2021/11/29 01:48:42;;;;;;;1.23;0.98;;;;;;;17.63;43.89;100162.28;5037837;28;20045;-69
2021/11/29 01:51:10;;;;;;;1.95;0.98;;;;;;;17.55;43.78;100155.25;5056779;28;20037;-69
2021/11/29 01:53:36;;;;;;;2.22;1.08;;;;;;;17.61;44.09;100159.00;5038590;28;20760;-69
2021/11/29 01:56:02;;;;;;;1.38;0.90;;;;;;;17.59;44.00;100159.16;5038639;28;20037;-69
2021/11/29 01:58:38;;;;;;;2.17;1.00;;;;;;;17.56;44.11;100159.53;5037700;28;20059;-69
2021/11/29 02:01:15;;;;;;;1.25;0.82;;;;;;;17.59;44.08;100150.44;5041985;28;20474;-70
2021/11/29 02:03:43;;;;;;;2.13;0.77;;;;;;;17.54;44.10;100151.00;5038403;28;20040;-70
2021/11/29 02:06:09;;;;;;;1.95;0.98;;;;;;;17.52;44.06;100153.81;5038992;28;20103;-70
2021/11/29 02:08:36;;;;;;;2.05;1.00;;;;;;;17.52;44.04;100145.91;5039820;28;20033;-70
2021/11/29 02:11:01;;;;;;;2.22;1.02;;;;;;;17.51;44.15;100146.09;5041681;28;20040;-70
2021/11/29 02:13:27;;;;;;;0.90;0.70;;;;;;;17.48;44.10;100157.81;5042067;28;20044;-70
2021/11/29 02:15:53;;;;;;;2.80;0.90;;;;;;;17.44;43.88;100142.56;5038287;28;20055;-69
2021/11/29 02:18:27;;;;;;;1.20;0.80;;;;;;;17.46;44.05;100151.91;5037339;28;20025;-70
2021/11/29 02:21:01;;;;;;;1.63;0.75;;;;;;;17.49;43.94;100159.44;5038591;28;20256;-70
2021/11/29 02:23:27;;;;;;;1.60;0.90;;;;;;;17.46;44.03;100156.34;5041152;28;20045;-69
2021/11/29 02:25:53;;;;;;;1.20;0.55;;;;;;;17.44;43.98;100150.47;5039475;28;20044;-70
2021/11/29 02:28:20;;;;;;;1.48;0.85;;;;;;;17.30;44.16;100133.63;5033829;28;20757;-69
2021/11/29 02:30:47;;;;;;;2.83;1.17;;;;;;;17.36;44.19;100140.81;5040387;28;20082;-70
2021/11/29 02:33:13;;;;;;;1.58;0.85;;;;;;;17.41;44.15;100151.59;5034616;28;20770;-70
2021/11/29 02:35:39;;;;;;;2.63;1.00;;;;;;;17.39;44.26;100152.78;5041064;28;20071;-70
2021/11/29 02:38:06;;;;;;;1.52;0.73;;;;;;;17.31;44.39;100140.53;5035922;28;20082;-70
2021/11/29 02:40:34;;;;;;;2.63;0.90;;;;;;;17.31;44.29;100139.72;5035455;28;20065;-69
2021/11/29 02:43:00;;;;;;;4.03;0.60;;;;;;;17.34;44.44;100145.44;5038927;28;20128;-70
2021/11/29 02:45:27;;;;;;;1.65;0.65;;;;;;;17.35;44.26;100136.53;5040717;28;20064;-70
2021/11/29 02:47:53;;;;;;;1.63;0.63;;;;;;;17.35;44.21;100138.34;5038186;28;20052;-70
2021/11/29 02:50:19;;;;;;;1.08;0.77;;;;;;;17.27;44.34;100134.00;5035808;28;20037;-70
2021/11/29 02:52:45;;;;;;;1.33;0.90;;;;;;;17.24;44.51;100142.25;5037789;28;20049;-70
2021/11/29 02:55:11;;;;;;;0.60;0.60;;;;;;;17.29;44.39;100142.53;5039084;28;20112;-70
2021/11/29 02:57:37;;;;;;;1.15;0.47;;;;;;;17.22;44.45;100138.97;5041035;28;20054;-70
2021/11/29 03:00:09;;;;;;;2.10;0.73;;;;;;;17.20;44.50;100139.16;5032719;28;20033;-70
2021/11/29 03:02:35;;;;;;;1.13;0.57;;;;;;;17.22;44.56;100139.78;5035021;28;20070;-70
2021/11/29 03:05:03;;;;;;;1.65;0.70;;;;;;;17.21;44.69;100142.59;5038902;28;20110;-70
2021/11/29 03:07:29;;;;;;;1.58;0.95;;;;;;;17.23;44.18;100140.59;5036352;28;20048;-70
2021/11/29 03:09:56;;;;;;;0.85;0.60;;;;;;;17.20;44.44;100141.78;5041846;28;20052;-70
2021/11/29 03:12:22;;;;;;;0.70;0.63;;;;;;;17.17;44.52;100146.59;5037737;28;20107;-70
2021/11/29 03:14:48;;;;;;;1.42;0.88;;;;;;;17.17;44.47;100139.50;5038693;28;20029;-69
2021/11/29 03:17:14;;;;;;;0.80;0.52;;;;;;;17.12;44.61;100133.97;5051465;28;20465;-70
2021/11/29 03:19:40;;;;;;;1.33;0.70;;;;;;;17.18;44.55;100146.41;5042167;28;20029;-70
2021/11/29 03:22:09;;;;;;;1.13;0.40;;;;;;;17.19;44.44;100144.59;5033455;28;20406;-70
2021/11/29 03:24:36;;;;;;;3.42;0.77;;;;;;;17.18;44.46;100148.22;5034951;28;20032;-70
2021/11/29 03:27:02;;;;;;;0.43;0.40;;;;;;;17.16;44.54;100145.78;5052837;28;20118;-70
2021/11/29 03:29:28;;;;;;;0.28;0.28;;;;;;;17.14;44.70;100147.75;5049762;28;20490;-70
2021/11/29 03:31:58;;;;;;;0.55;0.55;;;;;;;17.11;44.56;100147.31;5041184;28;20044;-70
2021/11/29 03:34:23;;;;;;;0.75;0.40;;;;;;;17.14;44.55;100150.41;5034688;28;20037;-70
2021/11/29 03:36:49;;;;;;;1.17;0.70;;;;;;;17.12;44.50;100148.94;5036074;28;20082;-70
2021/11/29 03:39:23;;;;;;;1.27;0.60;;;;;;;17.13;44.55;100147.94;5039227;28;20312;-70
2021/11/29 03:41:51;;;;;;;1.15;0.43;;;;;;;17.14;44.65;100154.84;5041076;28;20954;-70
2021/11/29 03:44:18;;;;;;;1.75;0.60;;;;;;;17.15;44.58;100149.41;5037788;28;20106;-70
2021/11/29 03:46:46;;;;;;;0.32;0.30;;;;;;;17.08;44.63;100145.03;5034213;28;20128;-70
2021/11/29 03:49:12;;;;;;;1.48;0.70;;;;;;;17.09;44.58;100151.94;5034922;28;20048;-70
2021/11/29 03:51:37;;;;;;;0.38;0.38;;;;;;;17.07;44.68;100159.19;5036919;28;20085;-69
2021/11/29 03:54:04;;;;;;;0.63;0.40;;;;;;;16.92;44.74;100136.28;5037408;28;20393;-70
2021/11/29 03:56:30;;;;;;;0.60;0.50;;;;;;;17.04;44.75;100155.06;5037694;28;20094;-70
2021/11/29 03:58:56;;;;;;;1.17;0.35;;;;;;;17.07;44.71;100161.81;5038681;28;20041;-69
2021/11/29 04:01:21;;;;;;;0.82;0.47;;;;;;;17.04;44.43;100152.44;5039446;28;20782;-70
2021/11/29 04:03:47;;;;;;;1.85;0.65;;;;;;;17.03;44.62;100163.97;5039869;28;20069;-70
2021/11/29 04:06:12;;;;;;;1.60;0.68;;;;;;;17.03;44.70;100168.41;5038544;28;20033;-70
2021/11/29 04:08:38;;;;;;;0.50;0.20;;;;;;;17.04;44.62;100173.47;5051578;28;20046;-70
2021/11/29 04:11:04;;;;;;;1.50;1.23;;;;;;;17.01;44.66;100175.66;5034409;28;20114;-70
2021/11/29 04:13:30;;;;;;;0.98;0.43;;;;;;;17.03;44.56;100182.38;5037390;28;20464;-70
2021/11/29 04:15:56;;;;;;;1.45;0.57;;;;;;;17.00;44.57;100184.53;5040114;28;20065;-70
2021/11/29 04:18:21;;;;;;;1.13;0.50;;;;;;;16.99;44.60;100190.81;5038874;28;20033;-70
2021/11/29 04:20:47;;;;;;;0.50;0.28;;;;;;;16.95;44.56;100186.91;5037227;28;20037;-70
2021/11/29 04:23:13;;;;;;;0.55;0.30;;;;;;;17.05;44.49;100193.53;5040293;28;20252;-70
2021/11/29 04:25:46;;;;;;;0.88;0.47;;;;;;;17.05;44.45;100190.09;5034391;28;20482;-70
2021/11/29 04:28:12;;;;;;;1.55;0.68;;;;;;;17.10;44.38;100201.75;5041864;28;20086;-70
2021/11/29 04:30:37;;;;;;;0.88;0.38;;;;;;;17.23;44.04;100203.75;5040228;28;20541;-70
2021/11/29 04:33:03;;;;;;;0.47;0.43;;;;;;;17.26;44.07;100198.16;5037872;28;20374;-70
2021/11/29 04:35:29;;;;;;;0.47;0.40;;;;;;;17.36;43.91;100209.22;5040161;28;20082;-70
2021/11/29 04:37:55;;;;;;;0.28;0.20;;;;;;;17.45;43.82;100212.63;5029460;28;20112;-70
2021/11/29 04:40:20;;;;;;;1.17;0.40;;;;;;;17.53;43.89;100212.53;5033568;28;20068;-69
2021/11/29 04:42:46;;;;;;;0.25;0.15;;;;;;;17.67;43.53;100221.47;5039676;28;20041;-70
2021/11/29 04:45:12;;;;;;;1.25;0.45;;;;;;;17.85;43.28;100223.78;5037223;28;20051;-70
2021/11/29 04:47:37;;;;;;;0.75;0.43;;;;;;;17.92;43.12;100236.03;5036081;28;20041;-70
2021/11/29 04:50:04;;;;;;;1.77;0.50;;;;;;;18.02;43.23;100236.59;5049366;28;20088;-70
2021/11/29 04:52:30;;;;;;;0.25;0.22;;;;;;;18.15;43.34;100243.06;5036992;28;20410;-70
2021/11/29 04:54:55;;;;;;;1.23;0.43;;;;;;;18.19;43.11;100239.03;5036092;28;20118;-70
2021/11/29 04:57:21;;;;;;;0.68;0.30;;;;;;;18.23;43.24;100241.13;5036251;28;20037;-70
2021/11/29 04:59:46;;;;;;;0.47;0.30;;;;;;;18.30;42.79;100249.91;5041726;28;20489;-70
2021/11/29 05:02:12;;;;;;;0.60;0.15;;;;;;;18.39;42.91;100269.09;5038409;28;20044;-70
2021/11/29 05:04:38;;;;;;;0.90;0.73;;;;;;;18.34;42.89;100245.13;5041943;28;20375;-70
2021/11/29 05:07:03;;;;;;;0.73;0.45;;;;;;;18.48;42.93;100265.34;5041879;28;20041;-70
2021/11/29 05:09:29;;;;;;;0.90;0.50;;;;;;;18.53;42.87;100268.28;5040601;28;20040;-70
2021/11/29 05:11:54;;;;;;;0.47;0.28;;;;;;;18.54;42.81;100263.81;5038776;28;20119;-70
2021/11/29 05:14:20;;;;;;;0.70;0.45;;;;;;;18.62;42.73;100275.06;5023342;28;20069;-70
2021/11/29 05:16:46;;;;;;;1.95;0.73;;;;;;;18.68;42.55;100282.28;5039393;28;20041;-70
2021/11/29 05:19:12;;;;;;;0.43;0.22;;;;;;;18.73;42.54;100287.00;5043498;28;20037;-70
2021/11/29 05:21:38;;;;;;;0.93;0.32;;;;;;;18.76;42.38;100288.44;5043345;28;20044;-70
2021/11/29 05:24:04;;;;;;;0.85;0.50;;;;;;;18.78;42.39;100295.16;5038714;28;20033;-70
2021/11/29 05:26:30;;;;;;;0.28;0.22;;;;;;;18.82;42.40;100301.69;5035369;28;20133;-70
2021/11/29 05:28:57;;;;;;;0.60;0.47;;;;;;;18.86;42.26;100313.53;5041197;28;20322;-70
2021/11/29 05:31:24;;;;;;;0.88;0.45;;;;;;;18.90;42.36;100312.16;5043273;28;20124;-70
2021/11/29 05:33:50;;;;;;;0.75;0.47;;;;;;;18.89;42.25;100310.53;5041426;28;20071;-70
2021/11/29 05:36:17;;;;;;;1.00;0.40;;;;;;;18.94;42.36;100316.06;5043006;28;20064;-70
2021/11/29 05:38:43;;;;;;;0.95;0.68;;;;;;;18.95;42.16;100319.50;5038913;28;20455;-70
2021/11/29 05:41:09;;;;;;;0.85;0.30;;;;;;;18.95;42.13;100327.41;5041634;28;20075;-70
2021/11/29 05:43:35;;;;;;;0.57;0.50;;;;;;;18.98;42.38;100329.69;5044025;28;20033;-70
2021/11/29 05:46:00;;;;;;;0.10;0.10;;;;;;;18.96;42.13;100329.06;5054439;28;20045;-70
2021/11/29 05:48:29;;;;;;;0.43;0.20;;;;;;;19.01;42.13;100335.41;5041372;28;20041;-70
2021/11/29 05:50:56;;;;;;;0.93;0.40;;;;;;;19.06;42.15;100341.97;5035494;28;20041;-70
2021/11/29 05:53:22;;;;;;;0.28;0.28;;;;;;;19.05;41.98;100346.44;5039215;28;20037;-70
2021/11/29 05:55:48;;;;;;;0.40;0.20;;;;;;;19.10;41.96;100354.59;5039539;28;20042;-70
2021/11/29 05:58:14;;;;;;;0.25;0.22;;;;;;;19.13;41.98;100354.22;5035251;28;20545;-70
2021/11/29 06:00:40;;;;;;;0.70;0.35;;;;;;;19.16;41.96;100360.94;5037658;28;20403;-70
2021/11/29 06:03:05;;;;;;;0.77;0.60;;;;;;;19.19;41.94;100366.66;5039806;28;20131;-70
2021/11/29 06:05:31;;;;;;;0.30;0.20;;;;;;;19.19;41.74;100363.22;5039803;28;20044;-70
2021/11/29 06:07:56;;;;;;;1.05;0.52;;;;;;;19.25;41.93;100380.97;5039062;28;20044;-70
2021/11/29 06:10:22;;;;;;;0.82;0.28;;;;;;;19.27;41.92;100385.03;5032961;28;20033;-70
2021/11/29 06:12:48;;;;;;;0.45;0.35;;;;;;;19.29;41.90;100382.22;5037200;28;20037;-70
2021/11/29 06:15:16;;;;;;;0.57;0.50;;;;;;;19.29;41.88;100392.78;5039192;28;20040;-70
2021/11/29 06:17:42;;;;;;;1.42;0.63;;;;;;;19.25;41.85;100400.25;5041884;28;20041;-70
2021/11/29 06:20:09;;;;;;;1.05;0.65;;;;;;;19.23;41.79;100389.06;5037352;28;20059;-70
2021/11/29 06:22:35;;;;;;;0.50;0.45;;;;;;;19.25;41.67;100397.63;5039162;28;20380;-70
2021/11/29 06:25:01;;;;;;;1.25;0.80;;;;;;;19.29;41.77;100404.16;5038266;28;20060;-70
2021/11/29 06:27:27;;;;;;;0.77;0.77;;;;;;;19.29;41.92;100411.25;5040725;28;20041;-70
2021/11/29 06:29:52;;;;;;;0.82;0.82;;;;;;;19.30;41.64;100416.34;5043313;28;20282;-70
2021/11/29 06:32:18;;;;;;;0.80;0.80;;;;;;;19.29;41.68;100417.34;5033291;28;20052;-70
2021/11/29 06:34:44;;;;;;;3.22;0.90;;;;;;;19.30;41.69;100428.72;5052382;28;20040;-70
2021/11/29 06:37:11;;;;;;;2.42;1.10;;;;;;;19.30;41.72;100431.38;5036216;28;20048;-70
2021/11/29 06:39:38;;;;;;;0.70;0.70;;;;;;;19.34;41.50;100443.19;5039603;28;20069;-70
2021/11/29 06:42:06;;;;;;;0.90;0.70;;;;;;;19.30;41.59;100440.09;5039898;28;20040;-69
2021/11/29 06:44:33;;;;;;;0.93;0.85;;;;;;;19.34;41.65;100451.09;5036167;28;20059;-70
2021/11/29 06:46:58;;;;;;;1.38;0.90;;;;;;;19.40;41.55;100460.94;5052388;28;20120;-70
2021/11/29 06:49:25;;;;;;;1.10;1.05;;;;;;;19.45;41.47;100453.28;5056230;28;20043;-70
2021/11/29 06:51:51;;;;;;;0.63;0.63;;;;;;;19.35;41.41;100436.91;5040195;28;20045;-70
2021/11/29 06:54:17;;;;;;;0.50;0.50;;;;;;;19.52;41.35;100469.19;5041667;28;20068;-70
2021/11/29 06:56:43;;;;;;;3.60;1.17;;;;;;;19.53;41.36;100463.72;5033095;28;20048;-70
2021/11/29 06:59:09;;;;;;;1.17;0.88;;;;;;;19.55;41.44;100467.03;5035967;28;20390;-70
2021/11/29 07:01:34;;;;;;;1.20;0.90;;;;;;;19.53;41.72;100468.19;5040380;28;20517;-70
2021/11/29 07:04:01;;;;;;;1.50;1.13;;;;;;;19.52;41.46;100479.75;5032992;28;20037;-70
2021/11/29 07:06:27;;;;;;;2.03;1.08;;;;;;;19.51;41.46;100480.75;5047101;28;20048;-70
2021/11/29 07:08:53;;;;;;;0.85;0.85;;;;;;;19.47;41.34;100488.22;5049314;28;20041;-70
2021/11/29 07:11:20;;;;;;;1.35;1.13;;;;;;;19.46;41.62;100499.00;5033082;28;20298;-70
2021/11/29 07:13:45;;;;;;;2.53;1.00;;;;;;;19.50;41.44;100502.88;5038765;28;20039;-70
2021/11/29 07:16:11;;;;;;;0.80;0.80;;;;;;;19.50;41.27;100510.81;5038128;28;20041;-70
2021/11/29 07:18:36;;;;;;;2.45;1.52;;;;;;;19.51;41.27;100507.97;5039634;28;20134;-70
2021/11/29 07:21:02;;;;;;;1.05;0.95;;;;;;;19.49;41.25;100503.91;5039021;28;20037;-70
2021/11/29 07:23:28;;;;;;;1.25;1.15;;;;;;;19.41;41.48;100504.81;5043018;28;20045;-70
2021/11/29 07:25:53;;;;;;;0.90;0.90;;;;;;;19.47;41.46;100519.09;5040155;28;20055;-70
2021/11/29 07:28:19;;;;;;;1.52;1.23;;;;;;;19.47;41.37;100527.03;5044988;28;20040;-70
2021/11/29 07:30:45;;;;;;;0.88;0.88;;;;;;;19.44;41.35;100515.03;5041334;28;20029;-70
2021/11/29 07:33:10;;;;;;;1.38;1.27;;;;;;;19.38;41.46;100509.63;5041678;28;20395;-70
2021/11/29 07:35:36;;;;;;;1.70;1.27;;;;;;;19.49;41.49;100523.19;5040625;28;20048;-70
2021/11/29 07:38:02;;;;;;;0.80;0.80;;;;;;;19.51;41.47;100531.75;5041188;28;20286;-70
2021/11/29 07:40:28;;;;;;;1.10;1.00;;;;;;;19.56;41.28;100542.59;5040649;28;20159;-70
2021/11/29 07:43:06;;;;;;;1.70;1.40;;;;;;;19.61;41.17;100552.63;5042521;28;20060;-70
2021/11/29 07:45:33;;;;;;;1.23;1.13;;;;;;;19.59;41.07;100547.53;5039685;28;20037;-70
2021/11/29 07:47:58;;;;;;;1.15;1.08;;;;;;;19.61;41.26;100555.28;5039049;28;20110;-70
2021/11/29 07:50:25;;;;;;;1.25;1.15;;;;;;;19.65;41.31;100566.28;5034015;28;20032;-70
2021/11/29 07:52:51;;;;;;;1.73;1.42;;;;;;;19.66;41.20;100575.84;5039046;28;20120;-70
2021/11/29 07:55:21;;;;;;;1.38;1.27;;;;;;;19.66;41.24;100579.31;5037868;28;20051;-70
2021/11/29 07:57:47;;;;;;;1.25;1.15;;;;;;;19.64;41.38;100576.03;5039538;28;20048;-70
2021/11/29 08:00:18;;;;;;;1.15;1.08;;;;;;;19.61;41.18;100579.06;5039823;28;20037;-70
2021/11/29 08:02:45;;;;;;;1.58;1.30;;;;;;;19.62;41.42;100583.34;5041259;28;20091;-70
2021/11/29 08:05:11;;;;;;;1.08;1.08;;;;;;;19.64;41.31;100589.25;5040313;28;20041;-70
2021/11/29 08:07:37;;;;;;;1.73;1.10;;;;;;;19.67;41.23;100588.88;5037730;28;20029;-69
2021/11/29 08:10:04;;;;;;;1.30;1.20;;;;;;;19.59;41.09;100581.88;5041202;28;20025;-70
2021/11/29 08:12:29;;;;;;;2.30;1.30;;;;;;;19.62;41.10;100593.91;5039654;28;20045;-70
2021/11/29 08:14:55;;;;;;;1.35;1.05;;;;;;;19.60;41.03;100593.25;5040350;28;20462;-70
2021/11/29 08:17:21;;;;;;;1.40;1.30;;;;;;;19.58;41.16;100600.56;5039153;28;20052;-69
2021/11/29 08:19:47;;;;;;;1.40;1.30;;;;;;;19.58;41.08;100605.84;5039182;28;20096;-70
2021/11/29 08:22:14;;;;;;;1.63;1.35;;;;;;;19.44;41.19;100588.13;5033019;28;20432;-70
2021/11/29 08:24:40;;;;;;;1.38;1.27;;;;;;;19.52;41.11;100599.41;5037554;28;20653;-70
2021/11/29 08:27:06;;;;;;;2.47;1.60;;;;;;;19.54;41.26;100604.53;5033578;28;20041;-70
2021/11/29 08:29:32;;;;;;;1.50;1.40;;;;;;;19.50;41.15;100608.53;5027632;28;20122;-70
2021/11/29 08:31:59;;;;;;;1.65;1.38;;;;;;;19.49;41.15;100620.91;5032838;28;20548;-70
2021/11/29 08:34:24;;;;;;;1.40;1.30;;;;;;;19.45;41.14;100614.38;5034824;28;20502;-70
2021/11/29 08:36:50;;;;;;;1.70;1.60;;;;;;;19.46;40.99;100617.81;5036525;28;20397;-70
2021/11/29 08:39:16;;;;;;;1.85;1.60;;;;;;;19.42;41.07;100619.19;5038483;28;20202;-70
2021/11/29 08:41:42;;;;;;;2.10;1.67;;;;;;;19.41;40.94;100621.00;5039150;28;20795;-70
2021/11/29 08:44:08;;;;;;;1.60;1.50;;;;;;;19.38;41.12;100621.34;5052816;28;20118;-69
2021/11/29 08:46:34;;;;;;;1.70;1.58;;;;;;;19.40;41.04;100631.75;5040302;28;20037;-69
2021/11/29 08:49:00;;;;;;;1.77;1.63;;;;;;;19.36;41.29;100639.19;5037062;28;20037;-70
2021/11/29 08:51:26;;;;;;;1.75;1.63;;;;;;;19.35;41.21;100645.47;5037905;28;20045;-70
2021/11/29 08:53:52;;;;;;;1.70;1.60;;;;;;;19.33;41.35;100637.75;5037353;28;20033;-69
2021/11/29 08:56:18;;;;;;;1.95;1.58;;;;;;;19.30;41.29;100645.22;5037364;28;20582;-69
2021/11/29 08:58:44;;;;;;;1.90;1.70;;;;;;;19.37;41.18;100651.41;5037447;28;20048;-69
2021/11/29 09:01:10;;;;;;;2.10;1.63;;;;;;;19.38;41.18;100654.84;5037191;28;20394;-70
2021/11/29 09:03:36;;;;;;;3.05;1.70;;;;;;;19.39;41.28;100674.97;5047036;28;20033;-70
2021/11/29 09:06:03;;;;;;;1.77;1.42;;;;;;;19.41;41.29;100676.47;5031580;28;20735;-69
2021/11/29 09:08:31;;;;;;;1.88;1.65;;;;;;;19.47;41.61;100688.13;5034135;28;20548;-70
2021/11/29 09:10:59;;;;;;;2.05;1.67;;;;;;;19.57;41.08;100691.38;5037596;28;20044;-70
2021/11/29 09:13:25;;;;;;;2.55;1.60;;;;;;;19.76;41.17;100690.00;5008071;28;20119;-69
2021/11/29 09:15:51;;;;;;;1.63;1.52;;;;;;;19.91;41.10;100688.97;5038553;28;20045;-69
2021/11/29 09:18:17;;;;;;;2.53;1.55;;;;;;;20.04;41.36;100690.16;5031130;28;20043;-69
2021/11/29 09:20:43;;;;;;;1.65;1.55;;;;;;;19.90;41.40;100692.63;5035336;28;20401;-71
2021/11/29 09:23:11;;;;;;;1.90;1.50;;;;;;;19.95;41.29;100705.31;5034573;28;20367;-69
2021/11/29 09:25:41;;;;;;;2.22;1.55;;;;;;;19.95;41.28;100712.41;5051381;28;20044;-71
2021/11/29 09:28:12;;;;;;;2.00;1.70;;;;;;;19.91;41.23;100707.47;4998867;28;20121;-71
2021/11/29 09:30:39;;;;;;;1.70;1.60;;;;;;;19.99;41.27;100719.78;5026956;28;20072;-71
2021/11/29 09:33:04;;;;;;;1.70;1.55;;;;;;;19.97;41.19;100718.34;5034055;28;20410;-71
2021/11/29 09:35:30;;;;;;;1.70;1.60;;;;;;;20.04;40.97;100733.25;5014325;28;20345;-71
2021/11/29 09:37:57;;;;;;;3.58;1.70;;;;;;;20.04;40.98;100727.97;5036442;28;20041;-72
2021/11/29 09:40:29;;;;;;;2.10;1.50;;;;;;;20.05;41.15;100723.50;5015968;28;20119;-72
2021/11/29 09:42:55;;;;;;;1.95;1.75;;;;;;;20.04;40.93;100730.63;5036034;28;20349;-71
2021/11/29 09:45:24;;;;;;;2.10;1.30;;;;;;;20.07;40.69;100727.59;5012552;28;20037;-72
2021/11/29 09:47:50;;;;;;;1.60;1.50;;;;;;;20.12;40.62;100730.53;5038046;28;20036;-71
2021/11/29 09:50:17;;;;;;;1.80;1.65;;;;;;;20.13;40.70;100740.09;5027737;28;20135;-71
2021/11/29 09:52:43;;;;;;;2.63;1.67;;;;;;;20.12;40.62;100743.75;5039124;28;20053;-71
2021/11/29 09:55:15;;;;;;;1.80;1.65;;;;;;;20.12;40.67;100756.16;5016694;28;20440;-71
2021/11/29 09:57:42;;;;;;;2.00;1.40;;;;;;;20.09;40.57;100757.31;5035247;28;20430;-71
2021/11/29 10:00:21;;;;;;;1.35;1.25;;;;;;;20.09;40.60;100756.50;5018497;28;20254;-71
2021/11/29 10:02:47;;;;;;;1.42;1.33;;;;;;;20.08;40.66;100760.97;5029205;28;20393;-70
2021/11/29 10:05:14;;;;;;;1.70;1.60;;;;;;;20.00;40.64;100753.16;5037750;28;20049;-71
2021/11/29 10:07:47;;;;;;;1.63;1.42;;;;;;;20.06;40.55;100759.50;5015194;28;20043;-71
2021/11/29 10:10:16;;;;;;;1.60;1.50;;;;;;;20.00;40.86;100758.44;5038477;28;20823;-72
2021/11/29 10:12:42;;;;;;;1.65;1.55;;;;;;;19.96;40.76;100758.97;5021833;28;20594;-71
2021/11/29 10:15:18;;;;;;;1.40;1.20;;;;;;;19.97;40.91;100757.97;5037424;28;20409;-71
2021/11/29 10:17:45;;;;;;;3.85;1.48;;;;;;;19.98;40.70;100760.44;5013606;28;20397;-72
2021/11/29 10:20:11;;;;;;;1.92;1.13;;;;;;;20.01;40.79;100765.34;5030065;28;20360;-70
2021/11/29 10:22:37;;;;;;;1.55;1.45;;;;;;;19.99;40.87;100769.19;5040804;28;20103;-70
2021/11/29 10:25:18;;;;;;;2.25;1.60;;;;;;;19.96;40.71;100772.19;5025045;28;20139;-72
2021/11/29 10:27:45;;;;;;;1.75;1.25;;;;;;;19.98;40.77;100776.28;5035303;28;20036;-71
2021/11/29 10:30:15;;;;;;;1.33;1.17;;;;;;;20.01;40.93;100783.03;5016371;28;20036;-71
2021/11/29 10:32:44;;;;;;;1.60;1.50;;;;;;;19.97;40.89;100773.84;5037573;28;20564;-71
2021/11/29 10:35:13;;;;;;;1.60;1.50;;;;;;;19.91;40.75;100764.78;5006502;28;20045;-70
2021/11/29 10:37:43;;;;;;;2.08;1.60;;;;;;;20.02;40.95;100784.69;5047385;28;20361;-71
2021/11/29 10:40:10;;;;;;;;;;;;;;;20.01;40.88;100790.97;5020790;28;20032;-71
2021/11/29 10:42:36;;;;;;;1.85;1.30;;;;;;;20.01;40.86;100788.31;5034738;28;19916;-71
2021/11/29 10:45:04;;;;;;;1.40;1.30;;;;;;;20.02;40.90;100792.59;5027368;28;20033;-70
2021/11/29 10:47:32;;;;;;;1.50;1.40;;;;;;;19.98;40.80;100797.44;5037863;28;20266;-70
2021/11/29 10:49:59;;;;;;;1.60;1.50;;;;;;;19.92;40.89;100785.75;5016045;28;20064;-71
2021/11/29 10:52:28;;;;;;;2.20;1.42;;;;;;;19.93;41.05;100805.09;5031170;28;20056;-71
2021/11/29 10:54:57;;;;;;;1.77;1.40;;;;;;;19.90;40.89;100794.88;5035972;28;20151;-70
2021/11/29 10:57:24;;;;;;;1.45;1.27;;;;;;;19.88;41.09;100805.63;5015154;28;20047;-71
2021/11/29 10:59:52;;;;;;;1.30;1.20;;;;;;;19.87;41.08;100801.34;5051586;28;20105;-71
2021/11/29 11:02:20;;;;;;;2.08;1.60;;;;;;;19.86;41.09;100801.53;5018005;28;20469;-70
2021/11/29 11:05:10;;;;;;;1.63;1.52;;;;;;;19.83;41.10;100810.63;5038546;28;20044;-71
2021/11/29 11:07:37;;;;;;;2.22;1.40;;;;;;;19.80;40.92;100796.97;5018465;28;20109;-71
2021/11/29 11:10:12;;;;;;;1.30;1.20;;;;;;;19.81;41.07;100806.53;5030916;28;20037;-71
2021/11/29 11:12:37;;;;;;;1.63;1.50;;;;;;;19.85;41.10;100803.34;5040358;28;20467;-71
2021/11/29 11:15:09;;;;;;;1.30;1.20;;;;;;;19.81;41.07;100806.53;5020311;28;20033;-70
2021/11/29 11:17:36;;;;;;;1.50;1.40;;;;;;;19.86;41.02;100812.09;5037002;28;20096;-71
2021/11/29 11:20:03;;;;;;;1.38;1.27;;;;;;;19.90;41.01;100810.72;5016948;28;20029;-70
2021/11/29 11:22:37;;;;;;;1.65;1.20;;;;;;;19.89;40.75;100806.44;5034785;28;20040;-71